createdAt,value
2018-09-20T00:02:11.808Z,6.97
2018-09-20T00:04:39.936Z,7.43
2018-09-20T00:07:08.104Z,6.87
2018-09-20T00:09:36.219Z,7.10
2018-09-20T00:12:04.332Z,7.40
2018-09-20T00:14:32.455Z,7.80
2018-09-20T00:17:00.565Z,6.60
2018-09-20T00:19:28.684Z,7.33
2018-09-20T00:21:56.840Z,7.13
2018-09-20T00:24:24.962Z,6.13
2018-09-20T00:26:53.128Z,7.37
2018-09-20T00:29:21.249Z,7.50
2018-09-20T00:31:49.386Z,8.03
2018-09-20T00:34:17.505Z,6.97
2018-09-20T00:36:45.617Z,7.20
2018-09-20T00:39:14.329Z,7.20
2018-09-20T00:41:42.802Z,7.50
2018-09-20T00:44:11.685Z,7.97
2018-09-20T00:46:39.817Z,7.70
2018-09-20T00:49:07.944Z,7.80
2018-09-20T00:51:36.061Z,8.77
2018-09-20T00:54:04.177Z,7.83
2018-09-20T00:56:32.292Z,7.73
2018-09-20T00:59:00.430Z,7.47
2018-09-20T01:01:28.553Z,7.87
2018-09-20T01:03:56.677Z,7.23
2018-09-20T01:06:25.145Z,7.70
2018-09-20T01:08:53.372Z,7.00
2018-09-20T01:11:21.561Z,7.53
2018-09-20T01:13:49.720Z,7.70
2018-09-20T01:16:17.882Z,6.80
2018-09-20T01:18:46.039Z,7.83
2018-09-20T01:21:14.169Z,8.70
2018-09-20T01:23:42.308Z,8.07
2018-09-20T01:26:10.460Z,7.80
2018-09-20T01:28:39.142Z,7.60
2018-09-20T01:31:07.258Z,7.43
2018-09-20T01:33:35.406Z,8.50
2018-09-20T01:36:03.533Z,8.43
2018-09-20T01:38:31.676Z,7.50
2018-09-20T01:40:59.800Z,8.20
2018-09-20T01:43:27.949Z,8.00
2018-09-20T01:45:56.085Z,8.17
2018-09-20T01:48:24.233Z,8.10
2018-09-20T01:50:52.355Z,8.33
2018-09-20T01:53:20.501Z,7.70
2018-09-20T01:55:48.643Z,8.33
2018-09-20T01:58:16.773Z,7.80
2018-09-20T02:00:44.908Z,7.23
2018-09-20T02:03:13.046Z,7.60
2018-09-20T02:05:41.197Z,7.20
2018-09-20T02:08:09.321Z,7.63
2018-09-20T02:10:37.502Z,7.57
2018-09-20T02:13:05.614Z,7.13
2018-09-20T02:15:33.759Z,6.57
2018-09-20T02:18:01.866Z,7.13
2018-09-20T02:20:30.272Z,7.57
2018-09-20T02:22:58.388Z,7.30
2018-09-20T02:25:26.518Z,8.17
2018-09-20T02:27:54.657Z,8.20
2018-09-20T02:30:22.781Z,7.50
2018-09-20T02:32:50.894Z,7.20
2018-09-20T02:35:19.025Z,7.20
2018-09-20T02:37:47.144Z,7.63
2018-09-20T02:40:15.273Z,6.50
2018-09-20T02:42:43.380Z,7.27
2018-09-20T02:45:11.507Z,7.40
2018-09-20T02:47:39.619Z,7.63
2018-09-20T02:50:07.745Z,6.50
2018-09-20T02:52:35.862Z,6.77
2018-09-20T02:55:04.170Z,5.80
2018-09-20T02:57:32.292Z,6.03
2018-09-20T03:00:00.397Z,7.23
2018-09-20T03:02:28.660Z,6.20
2018-09-20T03:04:56.794Z,6.23
2018-09-20T03:07:24.893Z,6.53
2018-09-20T03:09:53.021Z,6.40
2018-09-20T03:12:21.133Z,6.30
2018-09-20T03:14:49.254Z,7.07
2018-09-20T03:17:17.360Z,8.40
2018-09-20T03:19:45.481Z,7.33
2018-09-20T03:22:13.605Z,5.63
2018-09-20T03:24:41.725Z,5.93
2018-09-20T03:27:09.849Z,6.20
2018-09-20T03:29:38.008Z,6.57
2018-09-20T03:32:06.138Z,6.87
2018-09-20T03:34:34.265Z,6.67
2018-09-20T03:37:02.377Z,7.40
2018-09-20T03:39:30.503Z,8.40
2018-09-20T03:41:58.647Z,6.00
2018-09-20T03:44:26.767Z,6.70
2018-09-20T03:46:54.922Z,6.80
2018-09-20T03:49:23.025Z,6.20
2018-09-20T03:51:51.139Z,5.47
2018-09-20T03:54:19.243Z,5.70
2018-09-20T03:56:47.517Z,6.77
2018-09-20T03:59:15.627Z,7.07
2018-09-20T04:01:43.749Z,8.07
2018-09-20T04:04:11.856Z,6.97
2018-09-20T04:06:40.018Z,7.07
2018-09-20T04:09:09.708Z,7.83
2018-09-20T04:11:37.873Z,8.00
2018-09-20T04:14:06.145Z,7.27
2018-09-20T04:16:34.280Z,6.17
2018-09-20T04:19:02.384Z,6.10
2018-09-20T04:21:33.699Z,5.87
2018-09-20T04:24:03.274Z,6.17
2018-09-20T04:26:31.965Z,5.67
2018-09-20T04:29:00.563Z,5.63
2018-09-20T04:31:29.242Z,5.90
2018-09-20T04:33:59.743Z,6.20
2018-09-20T04:36:27.961Z,6.90
2018-09-20T04:38:56.093Z,7.07
2018-09-20T04:41:24.233Z,7.30
2018-09-20T04:43:52.528Z,7.70
2018-09-20T04:46:20.797Z,8.10
2018-09-20T04:48:48.917Z,7.63
2018-09-20T04:51:17.042Z,5.40
2018-09-20T04:53:45.263Z,5.60
2018-09-20T04:56:13.795Z,5.80
2018-09-20T04:58:41.980Z,6.13
2018-09-20T05:01:10.383Z,6.10
2018-09-20T05:03:38.500Z,7.40
2018-09-20T05:06:06.665Z,7.27
2018-09-20T05:08:35.051Z,7.90
2018-09-20T05:11:03.261Z,6.90
2018-09-20T05:13:31.382Z,6.73
2018-09-20T05:15:59.501Z,7.80
2018-09-20T05:18:28.681Z,9.30
2018-09-20T05:20:56.861Z,7.83
2018-09-20T05:23:25.080Z,6.03
2018-09-20T05:25:53.158Z,7.20
2018-09-20T05:28:22.321Z,7.20
2018-09-20T05:30:50.485Z,7.90
2018-09-20T05:33:19.144Z,7.50
2018-09-20T05:35:48.369Z,6.03
2018-09-20T05:38:17.611Z,8.83
2018-09-20T05:40:46.835Z,5.83
2018-09-20T05:43:15.978Z,6.60
2018-09-20T05:45:44.575Z,7.77
2018-09-20T05:48:12.693Z,8.90
2018-09-20T05:50:40.796Z,8.20
2018-09-20T05:53:08.927Z,7.60
2018-09-20T05:55:37.359Z,7.87
2018-09-20T05:58:05.679Z,6.57
2018-09-20T06:00:33.977Z,6.97
2018-09-20T06:03:02.099Z,6.43
2018-09-20T06:05:30.275Z,6.50
2018-09-20T06:07:58.432Z,6.97
2018-09-20T06:10:26.571Z,7.60
2018-09-20T06:12:54.706Z,8.13
2018-09-20T06:15:22.838Z,7.73
2018-09-20T06:17:50.969Z,7.40
2018-09-20T06:20:19.086Z,6.83
2018-09-20T06:22:47.245Z,10.57
2018-09-20T06:25:15.369Z,8.20
2018-09-20T06:27:43.535Z,6.90
2018-09-20T06:30:11.901Z,7.50
2018-09-20T06:32:40.103Z,7.40
2018-09-20T06:35:08.247Z,7.33
2018-09-20T06:37:36.400Z,8.43
2018-09-20T06:40:04.630Z,6.70
2018-09-20T06:42:33.782Z,7.17
2018-09-20T06:45:01.930Z,9.50
2018-09-20T06:47:30.061Z,7.13
2018-09-20T06:49:58.497Z,6.83
2018-09-20T06:52:26.651Z,6.77
2018-09-20T06:54:54.853Z,7.20
2018-09-20T06:57:23.010Z,6.80
2018-09-20T06:59:51.137Z,7.23
2018-09-20T07:02:19.298Z,6.60
2018-09-20T07:04:47.430Z,7.47
2018-09-20T07:07:15.600Z,6.20
2018-09-20T07:09:43.721Z,6.57
2018-09-20T07:12:11.914Z,6.87
2018-09-20T07:14:41.027Z,6.07
2018-09-20T07:17:09.138Z,4.93
2018-09-20T07:19:37.256Z,5.30
2018-09-20T07:22:05.374Z,5.67
2018-09-20T07:24:33.508Z,4.97
2018-09-20T07:27:01.642Z,5.47
2018-09-20T07:29:29.773Z,4.70
2018-09-20T07:31:57.937Z,5.27
2018-09-20T07:34:26.062Z,4.70
2018-09-20T07:36:54.175Z,4.73
2018-09-20T07:39:22.288Z,4.87
2018-09-20T07:41:50.397Z,4.93
2018-09-20T07:44:18.524Z,4.40
2018-09-20T07:46:46.649Z,5.07
2018-09-20T07:49:14.801Z,4.13
2018-09-20T07:51:42.929Z,4.50
2018-09-20T07:54:11.115Z,4.30
2018-09-20T07:56:39.271Z,4.27
2018-09-20T07:59:11.004Z,4.67
2018-09-20T08:01:39.209Z,4.60
2018-09-20T08:04:07.311Z,4.20
2018-09-20T08:06:35.425Z,4.70
2018-09-20T08:09:03.966Z,4.20
2018-09-20T08:11:32.220Z,4.77
2018-09-20T08:14:00.370Z,4.27
2018-09-20T08:16:28.615Z,4.90
2018-09-20T08:18:56.806Z,4.47
2018-09-20T08:21:25.064Z,4.93
2018-09-20T08:23:53.217Z,4.90
2018-09-20T08:26:21.381Z,4.60
2018-09-20T08:28:49.500Z,5.20
2018-09-20T08:31:17.596Z,4.80
2018-09-20T08:33:45.722Z,5.40
2018-09-20T08:36:13.860Z,5.10
2018-09-20T08:38:42.001Z,5.27
2018-09-20T08:41:10.110Z,5.30
2018-09-20T08:43:38.298Z,5.40
2018-09-20T08:46:06.478Z,4.40
2018-09-20T08:48:34.658Z,5.07
2018-09-20T08:51:02.873Z,5.23
2018-09-20T08:53:30.962Z,5.30
2018-09-20T08:55:59.084Z,5.43
2018-09-20T08:58:30.957Z,5.73
2018-09-20T09:00:59.212Z,5.33
2018-09-20T09:03:27.317Z,5.10
2018-09-20T09:05:55.474Z,5.67
2018-09-20T09:08:24.163Z,5.67
2018-09-20T09:10:52.417Z,5.97
2018-09-20T09:13:20.559Z,5.57
2018-09-20T09:15:48.735Z,5.90
2018-09-20T09:18:16.977Z,6.37
2018-09-20T09:20:45.168Z,5.60
2018-09-20T09:23:13.454Z,6.10
2018-09-20T09:25:41.601Z,5.47
2018-09-20T09:28:09.733Z,6.13
2018-09-20T09:30:38.146Z,6.10
2018-09-20T09:33:06.362Z,5.63
2018-09-20T09:35:34.545Z,5.63
2018-09-20T09:38:02.676Z,6.03
2018-09-20T09:40:30.805Z,5.73
2018-09-20T09:42:58.924Z,6.50
2018-09-20T09:45:27.066Z,6.53
2018-09-20T09:47:55.225Z,5.97
2018-09-20T09:50:23.345Z,6.50
2018-09-20T09:52:51.474Z,5.90
2018-09-20T09:55:19.634Z,5.87
2018-09-20T09:57:52.250Z,6.50
2018-09-20T10:00:25.739Z,6.43
2018-09-20T10:02:53.880Z,6.80
2018-09-20T10:05:22.037Z,7.20
2018-09-20T10:07:50.166Z,6.57
2018-09-20T10:10:18.285Z,7.30
2018-09-20T10:12:46.406Z,6.40
2018-09-20T10:15:14.664Z,5.30
2018-09-20T10:17:42.785Z,5.33
2018-09-20T10:20:10.932Z,5.40
2018-09-20T10:22:39.045Z,5.40
2018-09-20T10:25:07.259Z,5.93
2018-09-20T10:27:35.385Z,5.27
2018-09-20T10:30:04.271Z,5.13
2018-09-20T10:32:32.405Z,5.27
2018-09-20T10:35:00.562Z,5.70
2018-09-20T10:37:28.673Z,5.40
2018-09-20T10:39:56.924Z,6.00
2018-09-20T10:42:25.095Z,5.33
2018-09-20T10:44:53.289Z,5.43
2018-09-20T10:47:21.409Z,5.00
2018-09-20T10:49:49.527Z,5.30
2018-09-20T10:52:17.649Z,5.40
2018-09-20T10:54:45.777Z,4.83
2018-09-20T10:57:13.891Z,5.77
2018-09-20T10:59:42.043Z,4.50
2018-09-20T11:02:10.186Z,5.20
2018-09-20T11:04:38.339Z,4.27
2018-09-20T11:07:06.457Z,4.90
2018-09-20T11:09:34.582Z,4.70
2018-09-20T11:12:02.730Z,4.93
2018-09-20T11:14:30.879Z,4.50
2018-09-20T11:16:59.014Z,4.67
2018-09-20T11:19:27.139Z,4.57
2018-09-20T11:21:55.283Z,5.30
2018-09-20T11:24:23.405Z,4.70
2018-09-20T11:26:51.545Z,4.60
2018-09-20T11:29:19.664Z,4.60
2018-09-20T11:31:47.821Z,4.13
2018-09-20T11:34:15.949Z,4.60
2018-09-20T11:36:44.109Z,4.50
2018-09-20T11:39:13.521Z,4.40
2018-09-20T11:41:41.661Z,5.10
2018-09-20T11:44:09.989Z,4.40
2018-09-20T11:46:38.238Z,4.70
2018-09-20T11:49:06.363Z,3.77
2018-09-20T11:51:34.513Z,4.30
2018-09-20T11:54:02.742Z,4.60
2018-09-20T11:56:30.891Z,4.30
2018-09-20T11:58:59.022Z,4.23
2018-09-20T12:01:27.166Z,4.30
2018-09-20T12:03:55.289Z,4.67
2018-09-20T12:06:23.451Z,4.77
2018-09-20T12:08:51.582Z,4.50
2018-09-20T12:11:19.738Z,4.87
2018-09-20T12:13:47.872Z,4.23
2018-09-20T12:16:16.317Z,4.20
2018-09-20T12:18:44.481Z,4.17
2018-09-20T12:21:12.638Z,4.43
2018-09-20T12:23:40.781Z,4.63
2018-09-20T12:26:08.939Z,4.10
2018-09-20T12:28:37.106Z,4.90
2018-09-20T12:31:05.309Z,4.03
2018-09-20T12:33:33.445Z,5.10
2018-09-20T12:36:01.669Z,4.00
2018-09-20T12:38:29.783Z,4.73
2018-09-20T12:40:57.913Z,4.53
2018-09-20T12:43:26.053Z,5.00
2018-09-20T12:45:54.194Z,4.97
2018-09-20T12:48:22.389Z,4.73
2018-09-20T12:50:50.519Z,4.73
2018-09-20T12:53:18.677Z,4.10
2018-09-20T12:55:46.789Z,3.90
2018-09-20T12:58:14.917Z,4.10
2018-09-20T13:00:43.053Z,4.43
2018-09-20T13:03:11.186Z,3.90
2018-09-20T13:05:39.325Z,3.87
2018-09-20T13:08:07.456Z,4.07
2018-09-20T13:10:35.582Z,4.00
2018-09-20T13:13:03.708Z,4.17
2018-09-20T13:15:31.849Z,3.90
2018-09-20T13:17:59.996Z,4.43
2018-09-20T13:20:28.197Z,3.77
2018-09-20T13:22:56.295Z,4.03
2018-09-20T13:25:24.501Z,3.87
2018-09-20T13:27:52.560Z,3.93
2018-09-20T13:30:20.666Z,3.60
2018-09-20T13:32:48.810Z,4.47
2018-09-20T13:35:16.981Z,4.10
2018-09-20T13:37:45.116Z,3.67
2018-09-20T13:40:13.242Z,3.70
2018-09-20T13:42:41.385Z,3.73
2018-09-20T13:45:09.518Z,4.43
2018-09-20T13:47:37.743Z,4.00
2018-09-20T13:50:05.881Z,4.30
2018-09-20T13:52:34.009Z,4.63
2018-09-20T13:55:02.141Z,3.23
2018-09-20T13:57:30.269Z,4.23
2018-09-20T13:59:58.401Z,3.80
2018-09-20T14:02:26.542Z,3.70
2018-09-20T14:04:54.689Z,3.77
2018-09-20T14:07:22.938Z,3.27
2018-09-20T14:09:51.050Z,3.70
2018-09-20T14:12:19.209Z,4.00
2018-09-20T14:14:47.334Z,4.23
2018-09-20T14:17:15.448Z,4.73
2018-09-20T14:19:43.557Z,4.00
2018-09-20T14:22:11.701Z,3.90
2018-09-20T14:24:39.833Z,3.77
2018-09-20T14:27:08.125Z,4.30
2018-09-20T14:29:36.185Z,3.83
2018-09-20T14:32:04.255Z,4.30
2018-09-20T14:34:32.378Z,4.30
2018-09-20T14:37:00.525Z,4.50
2018-09-20T14:39:28.628Z,3.50
2018-09-20T14:41:56.761Z,4.20
2018-09-20T14:44:24.876Z,3.50
2018-09-20T14:46:52.988Z,4.00
2018-09-20T14:49:21.102Z,4.50
2018-09-20T14:51:49.217Z,4.30
2018-09-20T14:54:17.365Z,4.00
2018-09-20T14:56:45.485Z,3.97
2018-09-20T14:59:13.642Z,3.60
2018-09-20T15:01:41.775Z,3.67
2018-09-20T15:04:09.905Z,3.70
2018-09-20T15:06:38.034Z,3.90
2018-09-20T15:09:10.198Z,3.40
2018-09-20T15:11:38.478Z,4.30
2018-09-20T15:14:06.750Z,3.87
2018-09-20T15:16:34.909Z,4.07
2018-09-20T15:19:03.203Z,4.40
2018-09-20T15:21:31.340Z,3.97
2018-09-20T15:23:59.473Z,4.70
2018-09-20T15:26:27.615Z,3.70
2018-09-20T15:28:55.753Z,3.80
2018-09-20T15:31:23.940Z,3.50
2018-09-20T15:33:52.073Z,3.97
2018-09-20T15:36:20.212Z,3.80
2018-09-20T15:38:48.353Z,3.70
2018-09-20T15:41:16.476Z,3.40
2018-09-20T15:43:44.725Z,3.40
2018-09-20T15:46:12.858Z,4.00
2018-09-20T15:48:41.007Z,3.63
2018-09-20T15:51:09.178Z,3.70
2018-09-20T15:53:37.318Z,3.73
2018-09-20T15:56:05.438Z,3.40
2018-09-20T15:58:33.584Z,3.53
2018-09-20T16:01:01.781Z,3.77
2018-09-20T16:03:29.920Z,3.43
2018-09-20T16:05:58.060Z,3.70
2018-09-20T16:08:26.183Z,3.80
2018-09-20T16:10:54.322Z,3.60
2018-09-20T16:13:22.490Z,3.10
2018-09-20T16:15:50.616Z,3.70
2018-09-20T16:18:18.744Z,3.30
2018-09-20T16:20:46.864Z,3.70
2018-09-20T16:23:15.031Z,3.87
2018-09-20T16:25:43.204Z,3.70
2018-09-20T16:28:25.313Z,3.70
2018-09-20T16:31:32.349Z,4.03
2018-09-20T16:36:13.357Z,3.97
2018-09-20T16:39:02.416Z,3.30
2018-09-20T16:41:35.550Z,3.73
2018-09-20T16:44:03.821Z,3.23
2018-09-20T16:47:12.343Z,3.77
2018-09-20T16:49:40.533Z,3.93
2018-09-20T16:52:08.701Z,3.57
2018-09-20T16:54:36.850Z,3.20
2018-09-20T16:57:05.009Z,4.20
2018-09-20T16:59:33.196Z,3.43
2018-09-20T17:02:01.325Z,3.70
2018-09-20T17:04:29.543Z,4.20
2018-09-20T17:06:57.694Z,4.43
2018-09-20T17:09:25.841Z,3.90
2018-09-20T17:11:53.990Z,3.70
2018-09-20T17:14:22.149Z,3.80
2018-09-20T17:16:50.253Z,4.00
2018-09-20T17:19:18.373Z,3.30
2018-09-20T17:21:46.522Z,4.17
2018-09-20T17:24:14.653Z,4.50
2018-09-20T17:26:42.840Z,4.00
2018-09-20T17:29:10.958Z,3.90
2018-09-20T17:31:39.113Z,3.83
2018-09-20T17:34:07.239Z,3.47
2018-09-20T17:36:35.681Z,3.43
2018-09-20T17:39:07.551Z,4.30
2018-09-20T17:41:36.530Z,4.20
2018-09-20T17:44:06.356Z,3.83
2018-09-20T17:46:34.476Z,4.10
2018-09-20T17:49:02.605Z,3.93
2018-09-20T17:51:30.979Z,3.70
2018-09-20T17:53:59.445Z,4.03
2018-09-20T17:56:27.918Z,4.10
2018-09-20T17:58:56.361Z,3.93
2018-09-20T18:01:24.506Z,4.00
2018-09-20T18:03:55.968Z,5.70
2018-09-20T18:06:24.181Z,4.87
2018-09-20T18:08:52.310Z,4.07
2018-09-20T18:11:20.514Z,4.70
2018-09-20T18:13:48.656Z,4.03
2018-09-20T18:16:16.797Z,4.17
2018-09-20T18:18:44.934Z,4.57
2018-09-20T18:21:13.074Z,4.90
2018-09-20T18:23:41.205Z,3.90
2018-09-20T18:26:09.369Z,4.47
2018-09-20T18:28:37.502Z,4.27
2018-09-20T18:31:05.762Z,4.50
2018-09-20T18:33:33.914Z,5.63
2018-09-20T18:36:02.057Z,4.43
2018-09-20T18:38:30.181Z,4.37
2018-09-20T18:41:00.077Z,5.13
2018-09-20T18:43:28.221Z,4.47
2018-09-20T18:45:56.349Z,4.60
2018-09-20T18:48:24.513Z,4.83
2018-09-20T18:50:53.047Z,4.83
2018-09-20T18:53:21.199Z,4.30
2018-09-20T18:55:49.337Z,4.60
2018-09-20T18:58:17.461Z,4.40
2018-09-20T19:00:46.145Z,4.00
2018-09-20T19:03:14.407Z,5.43
2018-09-20T19:05:42.565Z,4.83
2018-09-20T19:08:10.848Z,5.50
2018-09-20T19:10:39.004Z,5.07
2018-09-20T19:13:07.154Z,5.10
2018-09-20T19:15:35.449Z,5.23
2018-09-20T19:18:03.669Z,4.80
2018-09-20T19:20:31.834Z,4.77
2018-09-20T19:22:59.970Z,4.93
2018-09-20T19:25:28.161Z,4.70
2018-09-20T19:27:56.348Z,4.83
2018-09-20T19:30:24.525Z,4.50
2018-09-20T19:32:52.669Z,4.80
2018-09-20T19:35:20.926Z,4.70
2018-09-20T19:37:49.074Z,4.63
2018-09-20T19:40:17.352Z,4.47
2018-09-20T19:42:45.573Z,4.43
2018-09-20T19:45:13.742Z,4.67
2018-09-20T19:47:41.894Z,5.00
2018-09-20T19:50:10.069Z,4.40
2018-09-20T19:52:38.249Z,4.27
2018-09-20T19:55:06.869Z,4.40
2018-09-20T19:57:34.950Z,3.67
2018-09-20T20:00:03.292Z,4.40
2018-09-20T20:02:31.482Z,3.93
2018-09-20T20:04:59.827Z,4.13
2018-09-20T20:07:27.971Z,3.70
2018-09-20T20:09:56.113Z,4.27
2018-09-20T20:18:09.896Z,3.90
2018-09-20T20:20:38.053Z,3.90
2018-09-20T20:23:06.219Z,4.07
2018-09-20T20:25:34.417Z,3.73
2018-09-20T20:28:02.572Z,3.83
2018-09-20T20:30:30.677Z,4.10
2018-09-20T20:32:58.891Z,3.30
2018-09-20T20:35:27.102Z,3.63
2018-09-20T20:37:55.284Z,3.93
2018-09-20T20:40:23.383Z,4.00
2018-09-20T20:42:51.569Z,3.90
2018-09-20T20:45:19.737Z,3.90
2018-09-20T20:47:47.935Z,3.83
2018-09-20T20:50:16.065Z,3.87
2018-09-20T20:52:44.196Z,4.20
2018-09-20T20:55:12.332Z,3.83
2018-09-20T20:57:40.539Z,4.23
2018-09-20T21:00:08.861Z,3.93
2018-09-20T21:02:36.968Z,4.27
2018-09-20T21:05:05.184Z,4.33
2018-09-20T21:07:33.325Z,4.07
2018-09-20T21:10:01.512Z,3.97
2018-09-20T21:12:29.765Z,4.23
2018-09-20T21:14:57.908Z,3.97
2018-09-20T21:17:26.032Z,3.90
2018-09-20T21:19:54.219Z,4.57
2018-09-20T21:22:22.428Z,4.13
2018-09-20T21:24:50.639Z,4.20
2018-09-20T21:27:18.752Z,4.10
2018-09-20T21:29:46.871Z,4.07
2018-09-20T21:32:14.977Z,4.17
2018-09-20T21:34:43.272Z,4.30
2018-09-20T21:37:11.447Z,4.40
2018-09-20T21:39:39.587Z,4.60
2018-09-20T21:42:07.720Z,4.23
2018-09-20T21:44:35.855Z,4.50
2018-09-20T21:47:04.056Z,3.93
2018-09-20T21:49:32.324Z,4.47
2018-09-20T21:52:00.484Z,4.07
2018-09-20T21:54:28.612Z,4.40
2018-09-20T21:56:56.743Z,4.30
2018-09-20T21:59:24.860Z,5.03
2018-09-20T22:01:58.366Z,4.67
2018-09-20T22:04:26.475Z,4.30
2018-09-20T22:06:54.608Z,4.50
2018-09-20T22:09:22.749Z,3.90
2018-09-20T22:11:51.004Z,4.67
2018-09-20T22:14:19.116Z,4.53
2018-09-20T22:16:47.263Z,5.10
2018-09-20T22:19:15.476Z,4.70
2018-09-20T22:21:43.619Z,4.63
2018-09-20T22:24:11.844Z,4.30
2018-09-20T22:26:39.995Z,4.50
2018-09-20T22:29:08.098Z,4.57
2018-09-20T22:31:36.232Z,5.50
2018-09-20T22:34:04.367Z,4.80
2018-09-20T22:36:32.608Z,4.33
2018-09-20T22:39:00.857Z,4.23
2018-09-20T22:41:28.967Z,4.70
2018-09-20T22:43:57.088Z,4.77
2018-09-20T22:46:25.226Z,4.53
2018-09-20T22:48:53.328Z,4.50
2018-09-20T22:51:21.477Z,4.77
2018-09-20T22:53:49.639Z,4.20
2018-09-20T22:56:17.760Z,4.90
2018-09-20T22:58:46.010Z,5.00
2018-09-20T23:01:15.918Z,6.07
2018-09-20T23:03:44.183Z,5.00
2018-09-20T23:06:12.297Z,4.57
2018-09-20T23:08:40.415Z,4.63
2018-09-20T23:11:08.569Z,4.87
2018-09-20T23:13:36.682Z,4.97
2018-09-20T23:16:04.816Z,5.53
2018-09-20T23:18:33.004Z,4.97
2018-09-20T23:21:01.208Z,5.30
2018-09-20T23:23:29.363Z,5.03
2018-09-20T23:25:57.489Z,4.80
2018-09-20T23:28:25.617Z,4.87
2018-09-20T23:30:53.761Z,4.80
2018-09-20T23:33:21.908Z,5.40
2018-09-20T23:35:50.044Z,5.10
2018-09-20T23:38:18.198Z,5.23
2018-09-20T23:40:46.317Z,5.30
2018-09-20T23:43:14.443Z,5.27
2018-09-20T23:45:42.608Z,5.20
2018-09-20T23:48:10.743Z,4.80
2018-09-20T23:50:38.864Z,4.93
2018-09-20T23:53:06.979Z,4.93
2018-09-20T23:55:35.105Z,5.00
2018-09-20T23:58:03.301Z,4.87
